createdAt,value
2018-05-25T00:00:17.333Z,8.60
2018-05-25T00:02:45.668Z,8.83
2018-05-25T00:05:14.000Z,8.33
2018-05-25T00:07:42.291Z,8.17
2018-05-25T00:10:10.619Z,8.90
2018-05-25T00:12:39.686Z,9.07
2018-05-25T00:15:08.021Z,8.60
2018-05-25T00:17:36.323Z,9.83
2018-05-25T00:20:04.638Z,11.00
2018-05-25T00:22:32.927Z,8.83
2018-05-25T00:25:02.084Z,10.20
2018-05-25T00:27:30.451Z,11.40
2018-05-25T00:29:58.777Z,10.63
2018-05-25T00:32:27.843Z,10.17
2018-05-25T00:34:56.159Z,10.73
2018-05-25T00:37:25.253Z,10.83
2018-05-25T00:39:54.312Z,9.60
2018-05-25T00:42:22.631Z,10.33
2018-05-25T00:44:51.693Z,10.13
2018-05-25T00:47:20.021Z,9.97
2018-05-25T00:49:48.325Z,10.73
2018-05-25T00:52:16.670Z,10.37
2018-05-25T00:57:47.539Z,10.97
2018-05-25T01:00:15.824Z,11.30
2018-05-25T01:02:44.141Z,11.93
2018-05-25T01:05:12.428Z,12.80
2018-05-25T01:07:40.757Z,12.37
2018-05-25T01:10:09.063Z,12.27
2018-05-25T01:12:37.395Z,11.93
2018-05-25T01:15:05.736Z,11.53
2018-05-25T01:17:34.932Z,11.33
2018-05-25T01:20:03.285Z,12.63
2018-05-25T01:22:31.656Z,14.30
2018-05-25T01:25:00.004Z,13.97
2018-05-25T01:27:28.369Z,14.03
2018-05-25T01:29:56.822Z,14.47
2018-05-25T01:32:25.207Z,15.63
2018-05-25T01:34:54.337Z,13.80
2018-05-25T01:37:22.696Z,12.93
2018-05-25T01:39:51.818Z,14.13
2018-05-25T01:42:20.193Z,15.13
2018-05-25T01:44:48.544Z,14.17
2018-05-25T01:47:17.728Z,15.17
2018-05-25T01:49:46.109Z,15.67
2018-05-25T01:52:14.524Z,14.67
2018-05-25T01:54:42.900Z,15.87
2018-05-25T01:57:11.301Z,14.63
2018-05-25T01:59:39.664Z,15.43
2018-05-25T02:02:08.060Z,16.40
2018-05-25T02:04:36.504Z,16.37
2018-05-25T02:07:04.862Z,15.63
2018-05-25T02:09:33.988Z,16.00
2018-05-25T02:12:03.169Z,15.73
2018-05-25T02:14:31.566Z,17.13
2018-05-25T02:16:59.972Z,17.77
2018-05-25T02:19:28.325Z,17.17
2018-05-25T02:21:56.772Z,17.57
2018-05-25T02:24:25.192Z,19.37
2018-05-25T02:26:54.341Z,18.63
2018-05-25T02:29:22.691Z,18.97
2018-05-25T02:31:51.816Z,17.13
2018-05-25T02:34:20.171Z,17.73
2018-05-25T02:36:48.589Z,19.07
2018-05-25T02:39:17.693Z,17.10
2018-05-25T02:41:45.992Z,16.60
2018-05-25T02:44:14.315Z,15.77
2018-05-25T02:46:42.615Z,16.40
2018-05-25T02:49:10.942Z,16.70
2018-05-25T02:51:39.256Z,18.50
2018-05-25T02:54:07.756Z,18.00
2018-05-25T02:56:36.055Z,17.40
2018-05-25T02:59:05.141Z,17.40
2018-05-25T03:01:34.205Z,17.77
2018-05-25T03:04:02.534Z,18.13
2018-05-25T03:06:30.834Z,17.47
2018-05-25T03:08:59.165Z,17.70
2018-05-25T03:11:27.457Z,18.17
2018-05-25T03:13:56.538Z,19.17
2018-05-25T03:16:25.604Z,19.60
2018-05-25T03:18:53.925Z,22.07
2018-05-25T03:21:22.984Z,21.60
2018-05-25T03:23:51.292Z,24.60
2018-05-25T03:26:19.605Z,23.57
2018-05-25T03:28:47.945Z,24.53
2018-05-25T03:31:16.233Z,25.23
2018-05-25T03:33:44.576Z,25.87
2018-05-25T03:36:12.872Z,24.87
2018-05-25T03:38:41.328Z,24.87
2018-05-25T03:41:09.617Z,24.13
2018-05-25T03:43:37.945Z,28.57
2018-05-25T03:46:06.240Z,25.40
2018-05-25T03:48:34.565Z,28.33
2018-05-25T03:51:03.632Z,26.77
2018-05-25T03:53:31.977Z,29.07
2018-05-25T03:56:00.276Z,28.07
2018-05-25T03:58:40.973Z,28.93
2018-05-25T04:01:21.925Z,27.53
2018-05-25T04:03:50.245Z,31.03
2018-05-25T04:06:18.544Z,32.07
2018-05-25T04:08:46.878Z,31.77
2018-05-25T04:11:15.163Z,32.40
2018-05-25T04:13:43.503Z,32.07
2018-05-25T04:16:11.805Z,30.70
2018-05-25T04:18:40.135Z,31.33
2018-05-25T04:21:08.428Z,30.30
2018-05-25T04:23:36.761Z,30.23
2018-05-25T04:26:05.815Z,29.87
2018-05-25T04:28:34.145Z,33.03
2018-05-25T04:31:02.444Z,30.37
2018-05-25T04:33:30.741Z,29.93
2018-05-25T04:35:59.828Z,30.57
2018-05-25T04:38:28.124Z,30.00
2018-05-25T04:40:56.440Z,31.67
2018-05-25T04:43:25.497Z,27.13
2018-05-25T04:45:53.824Z,29.03
2018-05-25T04:48:22.116Z,29.93
2018-05-25T04:50:50.476Z,31.17
2018-05-25T04:53:18.776Z,32.30
2018-05-25T04:55:47.089Z,30.93
2018-05-25T04:58:15.384Z,31.20
2018-05-25T05:00:43.712Z,32.10
2018-05-25T05:03:12.021Z,35.13
2018-05-25T05:05:40.336Z,35.80
2018-05-25T05:08:09.417Z,35.47
2018-05-25T05:10:37.764Z,33.33
2018-05-25T05:13:06.059Z,32.20
2018-05-25T05:15:34.376Z,33.50
2018-05-25T05:18:02.672Z,33.30
2018-05-25T05:20:30.997Z,34.57
2018-05-25T05:22:59.328Z,34.27
2018-05-25T05:25:27.625Z,33.93
2018-05-25T05:27:55.917Z,34.10
2018-05-25T05:30:24.251Z,32.37
2018-05-25T05:32:52.560Z,34.37
2018-05-25T05:35:20.908Z,35.30
2018-05-25T05:37:49.201Z,34.60
2018-05-25T05:40:17.518Z,33.77
2018-05-25T05:42:45.812Z,34.10
2018-05-25T05:45:14.136Z,35.70
2018-05-25T05:47:42.440Z,34.13
2018-05-25T05:50:10.755Z,34.53
2018-05-25T05:52:39.051Z,34.33
2018-05-25T05:55:07.380Z,33.80
2018-05-25T05:57:35.675Z,34.37
2018-05-25T06:00:04.013Z,33.47
2018-05-25T06:02:32.325Z,33.83
2018-05-25T06:05:00.661Z,32.50
2018-05-25T06:07:28.963Z,34.30
2018-05-25T06:09:57.301Z,32.17
2018-05-25T06:12:25.631Z,33.57
2018-05-25T06:14:53.913Z,30.60
2018-05-25T06:17:22.997Z,29.47
2018-05-25T06:19:51.293Z,32.37
2018-05-25T06:22:19.641Z,29.17
2018-05-25T06:24:47.952Z,29.67
2018-05-25T06:27:16.284Z,29.27
2018-05-25T06:29:44.582Z,26.73
2018-05-25T06:32:12.924Z,26.70
2018-05-25T06:34:41.260Z,26.57
2018-05-25T06:37:09.565Z,28.10
2018-05-25T06:39:37.872Z,24.67
2018-05-25T06:42:06.196Z,26.40
2018-05-25T06:44:35.262Z,26.87
2018-05-25T06:47:03.599Z,26.80
2018-05-25T06:49:31.904Z,26.97
2018-05-25T06:52:00.217Z,27.60
2018-05-25T06:54:29.283Z,24.70
2018-05-25T06:56:57.662Z,25.43
2018-05-25T06:59:26.026Z,26.77
2018-05-25T07:01:54.408Z,23.93
2018-05-25T07:04:22.804Z,25.80
2018-05-25T07:06:51.117Z,25.83
2018-05-25T07:09:19.400Z,24.90
2018-05-25T07:11:47.724Z,24.90
2018-05-25T07:14:16.016Z,25.07
2018-05-25T07:16:44.351Z,23.93
2018-05-25T07:19:12.648Z,23.13
2018-05-25T07:21:40.974Z,23.23
2018-05-25T07:24:10.039Z,23.40
2018-05-25T07:26:38.375Z,24.73
2018-05-25T07:29:06.665Z,22.57
2018-05-25T07:31:35.012Z,23.47
2018-05-25T07:34:03.304Z,21.80
2018-05-25T07:36:31.656Z,22.33
2018-05-25T07:39:00.711Z,20.60
2018-05-25T07:41:29.040Z,19.00
2018-05-25T07:43:57.351Z,20.43
2018-05-25T07:46:25.677Z,20.97
2018-05-25T07:48:53.974Z,18.57
2018-05-25T07:51:22.291Z,19.47
2018-05-25T07:53:51.353Z,19.17
2018-05-25T07:56:19.678Z,18.67
2018-05-25T07:58:47.972Z,17.77
2018-05-25T08:01:16.303Z,17.47
2018-05-25T08:03:44.633Z,17.47
2018-05-25T08:06:12.920Z,17.77
2018-05-25T08:08:42.012Z,18.23
2018-05-25T08:11:11.064Z,18.97
2018-05-25T08:13:40.152Z,16.87
2018-05-25T08:16:08.455Z,17.43
2018-05-25T08:18:36.792Z,18.43
2018-05-25T08:21:05.088Z,16.87
2018-05-25T08:23:33.396Z,18.37
2018-05-25T08:26:01.714Z,17.10
2018-05-25T08:28:30.034Z,17.87
2018-05-25T08:30:58.326Z,16.70
2018-05-25T08:33:26.662Z,15.97
2018-05-25T08:35:54.958Z,15.83
2018-05-25T08:38:23.290Z,16.20
2018-05-25T08:40:51.613Z,15.50
2018-05-25T08:43:19.984Z,16.57
2018-05-25T08:45:48.248Z,14.80
2018-05-25T08:48:16.568Z,14.20
2018-05-25T08:50:44.856Z,13.57
2018-05-25T08:53:13.182Z,13.60
2018-05-25T08:55:41.504Z,13.60
2018-05-25T08:58:09.815Z,13.40
2018-05-25T09:00:38.111Z,15.73
2018-05-25T09:03:06.439Z,15.07
2018-05-25T09:05:34.743Z,16.43
2018-05-25T09:08:03.064Z,15.90
2018-05-25T09:10:31.354Z,16.07
2018-05-25T09:12:59.700Z,17.37
2018-05-25T09:15:28.008Z,17.50
2018-05-25T09:17:56.340Z,16.83
2018-05-25T09:20:24.636Z,17.80
2018-05-25T09:22:52.952Z,16.90
2018-05-25T09:25:21.262Z,16.30
2018-05-25T09:27:50.363Z,16.10
2018-05-25T09:30:18.660Z,16.43
2018-05-25T09:32:47.003Z,16.60
2018-05-25T09:35:15.311Z,15.47
2018-05-25T09:37:43.640Z,14.73
2018-05-25T09:40:11.937Z,15.53
2018-05-25T09:42:41.013Z,15.93
2018-05-25T09:45:10.232Z,17.20
2018-05-25T09:47:38.637Z,16.97
2018-05-25T09:50:07.051Z,16.37
2018-05-25T09:52:35.438Z,16.87
2018-05-25T09:55:03.772Z,16.07
2018-05-25T09:57:32.078Z,16.80
2018-05-25T10:00:00.384Z,15.70
2018-05-25T10:02:28.675Z,15.60
2018-05-25T10:04:57.833Z,14.80
2018-05-25T10:07:26.132Z,17.30
2018-05-25T10:09:54.454Z,16.53
2018-05-25T10:12:22.756Z,16.73
2018-05-25T10:14:51.100Z,16.57
2018-05-25T10:17:19.460Z,14.57
2018-05-25T10:19:48.653Z,14.63
2018-05-25T10:22:16.972Z,14.77
2018-05-25T10:24:45.395Z,12.40
2018-05-25T10:27:13.722Z,13.37
2018-05-25T10:29:42.116Z,13.57
2018-05-25T10:32:10.554Z,13.67
2018-05-25T10:34:39.676Z,14.23
2018-05-25T10:37:08.059Z,13.40
2018-05-25T10:39:36.466Z,13.90
2018-05-25T10:42:05.588Z,13.83
2018-05-25T10:44:33.969Z,13.77
2018-05-25T10:47:02.336Z,13.63
2018-05-25T10:49:30.693Z,11.90
2018-05-25T10:51:58.979Z,10.33
2018-05-25T10:54:27.291Z,10.13
2018-05-25T10:56:55.596Z,9.90
2018-05-25T10:59:23.932Z,11.03
2018-05-25T11:01:52.240Z,11.23
2018-05-25T11:04:21.334Z,11.03
2018-05-25T11:06:50.405Z,10.90
2018-05-25T11:09:18.720Z,11.03
2018-05-25T11:11:47.012Z,11.27
2018-05-25T11:14:15.335Z,11.13
2018-05-25T11:16:44.409Z,11.60
2018-05-25T11:19:12.732Z,10.90
2018-05-25T11:21:41.800Z,11.17
2018-05-25T11:24:10.111Z,10.83
2018-05-25T11:26:38.407Z,9.97
2018-05-25T11:29:06.759Z,10.20
2018-05-25T11:31:35.832Z,9.73
2018-05-25T11:34:04.112Z,9.93
2018-05-25T11:36:32.430Z,9.27
2018-05-25T11:39:00.723Z,9.27
2018-05-25T11:41:29.065Z,9.07
2018-05-25T11:43:58.124Z,9.27
2018-05-25T11:46:26.436Z,8.23
2018-05-25T11:48:54.733Z,9.77
2018-05-25T11:51:23.048Z,7.47
2018-05-25T11:53:51.328Z,7.43
2018-05-25T11:56:19.632Z,9.23
2018-05-25T11:58:47.928Z,9.23
2018-05-25T12:01:16.248Z,7.77
2018-05-25T12:03:45.312Z,7.63
2018-05-25T12:06:13.647Z,10.77
2018-05-25T12:08:41.941Z,6.73
2018-05-25T12:11:10.251Z,6.50
2018-05-25T12:13:38.533Z,5.30
2018-05-25T12:16:06.839Z,5.73
2018-05-25T12:18:35.142Z,5.83
2018-05-25T12:21:03.453Z,5.27
2018-05-25T12:23:31.735Z,6.07
2018-05-25T12:26:00.041Z,5.63
2018-05-25T12:28:29.098Z,5.77
2018-05-25T12:30:57.405Z,5.50
2018-05-25T12:33:25.688Z,5.63
2018-05-25T12:35:54.012Z,5.10
2018-05-25T12:38:23.055Z,4.57
2018-05-25T12:40:51.360Z,4.57
2018-05-25T12:43:19.641Z,4.87
2018-05-25T12:45:47.948Z,4.83
2018-05-25T12:48:17.016Z,4.27
2018-05-25T12:50:45.327Z,4.33
2018-05-25T12:53:14.381Z,3.93
2018-05-25T12:55:42.697Z,4.07
2018-05-25T12:58:11.743Z,4.30
2018-05-25T13:00:40.072Z,3.87
2018-05-25T13:03:08.361Z,3.97
2018-05-25T13:05:36.672Z,4.17
2018-05-25T13:08:04.972Z,4.20
2018-05-25T13:10:33.298Z,4.67
2018-05-25T13:13:01.590Z,4.30
2018-05-25T13:15:29.904Z,3.90
2018-05-25T13:17:58.209Z,3.80
2018-05-25T13:20:27.281Z,3.90
2018-05-25T13:22:55.573Z,3.70
2018-05-25T13:25:24.661Z,3.90
2018-05-25T13:27:53.715Z,3.30
2018-05-25T13:30:22.007Z,3.47
2018-05-25T13:32:50.330Z,3.53
2018-05-25T13:35:18.643Z,3.00
2018-05-25T13:37:47.075Z,3.53
2018-05-25T13:40:16.196Z,3.53
2018-05-25T13:42:44.610Z,2.37
2018-05-25T13:45:12.989Z,3.07
2018-05-25T13:47:41.364Z,3.80
2018-05-25T13:50:09.713Z,3.30
2018-05-25T13:52:38.138Z,2.90
2018-05-25T13:55:06.482Z,2.70
2018-05-25T13:57:34.911Z,3.00
2018-05-25T14:00:03.319Z,2.80
2018-05-25T14:02:31.740Z,2.87
2018-05-25T14:05:00.165Z,3.07
2018-05-25T14:07:29.345Z,2.80
2018-05-25T14:09:57.674Z,3.00
2018-05-25T14:12:26.020Z,2.77
2018-05-25T14:14:55.186Z,2.83
2018-05-25T14:17:23.636Z,3.30
2018-05-25T14:19:51.933Z,2.73
2018-05-25T14:22:20.332Z,2.60
2018-05-25T14:24:48.686Z,2.60
2018-05-25T14:27:16.988Z,2.63
2018-05-25T14:29:45.265Z,2.73
2018-05-25T14:32:13.605Z,2.40
2018-05-25T14:34:41.891Z,2.60
2018-05-25T14:37:10.193Z,2.60
2018-05-25T14:39:38.476Z,2.40
2018-05-25T14:42:06.800Z,2.47
2018-05-25T14:44:35.080Z,2.83
2018-05-25T14:47:03.438Z,2.20
2018-05-25T14:49:32.492Z,2.40
2018-05-25T14:52:00.817Z,2.50
2018-05-25T14:54:29.152Z,2.27
2018-05-25T14:56:57.504Z,2.50
2018-05-25T14:59:25.801Z,2.37
2018-05-25T15:01:54.111Z,2.47
2018-05-25T15:04:23.159Z,2.23
2018-05-25T15:06:52.228Z,2.03
2018-05-25T15:09:20.504Z,2.40
2018-05-25T15:11:48.811Z,2.10
2018-05-25T15:14:17.144Z,2.30
2018-05-25T15:16:45.523Z,2.50
2018-05-25T15:19:14.740Z,2.50
2018-05-25T15:21:43.034Z,2.20
2018-05-25T15:24:11.346Z,2.40
2018-05-25T15:26:39.636Z,2.00
2018-05-25T15:29:08.733Z,2.30
2018-05-25T15:31:37.788Z,2.27
2018-05-25T15:34:06.094Z,2.53
2018-05-25T15:36:34.385Z,2.30
2018-05-25T15:39:03.468Z,2.50
2018-05-25T15:41:31.747Z,2.23
2018-05-25T15:44:00.060Z,2.93
2018-05-25T15:46:28.368Z,2.63
2018-05-25T15:48:56.688Z,2.60
2018-05-25T15:51:25.747Z,2.77
2018-05-25T15:53:54.056Z,2.67
2018-05-25T15:56:23.161Z,2.90
2018-05-25T15:58:51.444Z,2.50
2018-05-25T16:01:20.488Z,3.30
2018-05-25T16:03:48.808Z,2.83
2018-05-25T16:06:17.865Z,2.90
2018-05-25T16:08:46.190Z,2.60
2018-05-25T16:11:14.500Z,2.23
2018-05-25T16:13:42.812Z,2.47
2018-05-25T16:16:11.130Z,2.60
2018-05-25T16:18:39.471Z,2.43
2018-05-25T16:21:07.780Z,3.20
2018-05-25T16:23:36.149Z,3.30
2018-05-25T16:26:05.274Z,3.03
2018-05-25T16:28:33.701Z,2.87
2018-05-25T16:31:02.124Z,2.90
2018-05-25T16:33:30.604Z,2.87
2018-05-25T16:35:58.945Z,2.53
2018-05-25T16:38:27.417Z,2.70
2018-05-25T16:40:55.799Z,2.70
2018-05-25T16:43:24.188Z,3.00
2018-05-25T16:45:52.501Z,2.37
2018-05-25T16:48:20.917Z,2.73
2018-05-25T16:50:49.210Z,2.70
2018-05-25T16:53:17.528Z,2.40
2018-05-25T16:55:45.817Z,2.67
2018-05-25T16:58:14.121Z,2.70
2018-05-25T17:00:43.177Z,2.43
2018-05-25T17:03:12.260Z,2.50
2018-05-25T17:05:41.316Z,3.00
2018-05-25T17:08:09.618Z,3.40
2018-05-25T17:10:37.896Z,2.60
2018-05-25T17:13:06.212Z,2.53
2018-05-25T17:15:34.502Z,3.00
2018-05-25T17:18:02.808Z,3.07
2018-05-25T17:20:31.090Z,2.83
2018-05-25T17:22:59.414Z,4.17
2018-05-25T17:25:27.718Z,3.97
2018-05-25T17:27:55.992Z,3.57
2018-05-25T17:30:24.343Z,3.30
2018-05-25T17:32:53.375Z,3.03
2018-05-25T17:35:21.676Z,3.17
2018-05-25T17:37:49.964Z,3.43
2018-05-25T17:40:18.283Z,3.20
2018-05-25T17:42:46.571Z,2.93
2018-05-25T17:45:14.896Z,3.37
2018-05-25T17:47:43.203Z,3.00
2018-05-25T17:50:11.525Z,3.00
2018-05-25T17:52:39.800Z,4.93
2018-05-25T17:55:08.103Z,4.60
2018-05-25T17:57:36.392Z,3.93
2018-05-25T18:00:04.704Z,3.50
2018-05-25T18:02:33.009Z,3.73
2018-05-25T18:05:01.329Z,4.10
2018-05-25T18:07:30.378Z,3.70
2018-05-25T18:09:58.700Z,4.73
2018-05-25T18:12:27.795Z,3.30
2018-05-25T18:14:56.869Z,3.73
2018-05-25T18:17:25.173Z,3.30
2018-05-25T18:19:53.505Z,3.80
2018-05-25T18:22:21.796Z,3.53
2018-05-25T18:24:50.108Z,3.60
2018-05-25T18:27:19.201Z,3.87
2018-05-25T18:29:47.478Z,3.90
2018-05-25T18:32:16.538Z,3.60
2018-05-25T18:34:44.864Z,4.00
2018-05-25T18:37:13.156Z,4.40
2018-05-25T18:39:41.485Z,3.80
2018-05-25T18:42:09.771Z,4.50
2018-05-25T18:44:38.843Z,4.53
2018-05-25T18:47:07.148Z,3.93
2018-05-25T18:49:36.223Z,4.63
2018-05-25T18:52:04.504Z,4.77
2018-05-25T18:54:32.828Z,3.80
2018-05-25T18:57:01.099Z,5.50
2018-05-25T18:59:29.422Z,4.30
2018-05-25T19:01:57.727Z,4.60
2018-05-25T19:04:26.857Z,4.30
2018-05-25T19:06:55.877Z,4.27
2018-05-25T19:09:24.196Z,4.00
2018-05-25T19:11:52.478Z,4.23
2018-05-25T19:14:21.559Z,4.17
2018-05-25T19:16:49.854Z,4.20
2018-05-25T19:19:18.961Z,4.27
2018-05-25T19:21:47.243Z,4.60
2018-05-25T19:24:15.575Z,4.67
2018-05-25T19:26:43.854Z,4.70
2018-05-25T19:29:12.168Z,4.10
2018-05-25T19:31:40.440Z,4.20
2018-05-25T19:34:08.728Z,4.23
2018-05-25T19:36:37.072Z,4.77
2018-05-25T19:39:06.289Z,3.90
2018-05-25T19:41:34.609Z,4.57
2018-05-25T19:44:02.897Z,6.13
2018-05-25T19:46:31.224Z,6.60
2018-05-25T19:48:59.512Z,5.50
2018-05-25T19:51:27.832Z,4.60
2018-05-25T19:53:56.126Z,5.03
2018-05-25T19:56:24.452Z,4.60
2018-05-25T19:58:52.750Z,4.03
2018-05-25T20:01:21.058Z,4.90
2018-05-25T20:03:49.347Z,4.07
2018-05-25T20:06:17.664Z,4.20
2018-05-25T20:08:45.968Z,4.30
2018-05-25T20:11:14.270Z,4.57
2018-05-25T20:13:42.554Z,4.50
2018-05-25T20:16:11.672Z,8.90
2018-05-25T20:18:39.956Z,6.00
2018-05-25T20:21:08.275Z,5.07
2018-05-25T20:23:36.558Z,4.80
2018-05-25T20:26:04.879Z,4.83
2018-05-25T20:28:33.958Z,4.90
2018-05-25T20:31:03.041Z,5.33
2018-05-25T20:33:31.325Z,5.90
2018-05-25T20:36:00.412Z,4.77
2018-05-25T20:38:28.692Z,5.30
2018-05-25T20:40:57.009Z,5.03
2018-05-25T20:43:25.295Z,5.07
2018-05-25T20:45:53.612Z,4.63
2018-05-25T20:48:21.891Z,4.67
2018-05-25T20:50:50.200Z,6.57
2018-05-25T20:53:19.290Z,11.30
2018-05-25T20:55:47.618Z,7.43
2018-05-25T20:58:15.904Z,5.50
2018-05-25T21:00:44.216Z,4.60
2018-05-25T21:03:12.506Z,5.03
2018-05-25T21:05:41.585Z,4.33
2018-05-25T21:08:09.868Z,4.93
2018-05-25T21:10:38.945Z,5.07
2018-05-25T21:13:07.227Z,4.93
2018-05-25T21:15:35.532Z,4.77
2018-05-25T21:18:04.572Z,5.17
2018-05-25T21:20:32.892Z,5.40
2018-05-25T21:23:01.936Z,5.43
2018-05-25T21:25:30.259Z,5.47
2018-05-25T21:27:59.312Z,5.77
2018-05-25T21:30:27.641Z,5.13
2018-05-25T21:32:56.699Z,5.13
2018-05-25T21:35:25.004Z,4.83
2018-05-25T21:37:53.296Z,5.27
2018-05-25T21:40:22.353Z,4.97
2018-05-25T21:42:50.670Z,4.87
2018-05-25T21:45:19.731Z,5.27
2018-05-25T21:47:48.042Z,5.70
2018-05-25T21:50:17.100Z,5.33
2018-05-25T21:52:45.405Z,5.90
2018-05-25T21:55:14.481Z,5.37
2018-05-25T21:57:42.784Z,5.33
2018-05-25T22:00:11.064Z,5.57
2018-05-25T22:02:40.151Z,5.13
2018-05-25T22:05:09.207Z,4.80
2018-05-25T22:07:37.571Z,5.23
2018-05-25T22:10:05.889Z,5.90
2018-05-25T22:12:34.198Z,5.70
2018-05-25T22:15:02.492Z,6.60
2018-05-25T22:17:30.795Z,5.87
2018-05-25T22:19:59.099Z,5.90
2018-05-25T22:22:27.446Z,6.37
2018-05-25T22:24:55.728Z,5.57
2018-05-25T22:27:24.035Z,5.97
2018-05-25T22:29:52.335Z,6.17
2018-05-25T22:32:20.666Z,5.40
2018-05-25T22:34:48.944Z,5.60
2018-05-25T22:37:17.244Z,5.80
2018-05-25T22:39:45.528Z,5.93
2018-05-25T22:42:26.413Z,6.23
2018-05-25T22:45:12.613Z,6.10
2018-05-25T22:47:58.944Z,5.70
2018-05-25T22:50:45.002Z,5.73
2018-05-25T22:53:24.405Z,5.67
2018-05-25T22:55:52.691Z,6.00
2018-05-25T22:58:21.032Z,5.47
2018-05-25T23:00:49.316Z,5.60
2018-05-25T23:03:17.637Z,6.20
2018-05-25T23:05:46.705Z,5.67
2018-05-25T23:08:15.012Z,6.23
2018-05-25T23:10:43.305Z,5.87
2018-05-25T23:13:11.617Z,6.10
2018-05-25T23:15:39.895Z,6.13
2018-05-25T23:18:08.208Z,6.13
2018-05-25T23:20:36.489Z,6.30
2018-05-25T23:23:04.804Z,5.90
2018-05-25T23:25:33.089Z,6.67
2018-05-25T23:28:01.398Z,5.50
2018-05-25T23:30:29.676Z,6.13
2018-05-25T23:32:57.972Z,6.17
2018-05-25T23:35:27.027Z,6.47
2018-05-25T23:37:55.336Z,6.23
2018-05-25T23:40:23.623Z,6.33
2018-05-25T23:42:52.696Z,5.97
2018-05-25T23:45:20.975Z,6.37
2018-05-25T23:47:49.288Z,6.13
2018-05-25T23:50:18.344Z,5.73
2018-05-25T23:52:46.656Z,6.73
2018-05-25T23:55:15.720Z,5.70
2018-05-25T23:57:44.031Z,6.43
